Time;durP1;ratioP1;P1;durP2;ratioP2;P2;SDS_P1;SDS_P2;PMS_P1;PMS_P2;Temp;Humidity;BMP_temperature;BMP_pressure;BME280_temperature;BME280_humidity;BME280_pressure;Samples;Min_cycle;Max_cycle;Signal;HPM_P1;HPM_P2
2021/07/07 00:01:55;;;;;;;3.03;1.33;;;18.40;81.60;;;;;;5090345;28;20473;-45
2021/07/07 00:04:22;;;;;;;1.93;1.23;;;18.40;81.80;;;;;;5091982;28;20451;-45
2021/07/07 00:06:49;;;;;;;2.20;1.67;;;18.40;82.00;;;;;;5062439;28;20453;-45
2021/07/07 00:09:16;;;;;;;5.50;2.30;;;18.30;82.00;;;;;;5062809;28;20454;-45
2021/07/07 00:11:43;;;;;;;1.90;1.80;;;18.30;82.00;;;;;;5062610;28;20856;-45
2021/07/07 00:14:10;;;;;;;2.07;1.20;;;18.30;82.00;;;;;;5060031;28;21033;-45
2021/07/07 00:16:36;;;;;;;1.33;1.23;;;18.30;81.60;;;;;;5060888;28;20974;-45
2021/07/07 00:19:04;;;;;;;2.90;1.57;;;18.30;81.50;;;;;;5089484;28;20482;-45
2021/07/07 00:21:32;;;;;;;3.33;2.20;;;18.30;81.50;;;;;;5058729;28;20978;-45
2021/07/07 00:23:59;;;;;;;3.13;1.47;;;18.30;81.60;;;;;;5063068;28;20450;-45
2021/07/07 00:26:25;;;;;;;4.10;1.77;;;18.30;81.80;;;;;;5062437;28;20445;-45
2021/07/07 00:28:52;;;;;;;1.83;1.33;;;18.30;81.80;;;;;;5063075;28;20462;-45
2021/07/07 00:31:20;;;;;;;1.40;1.23;;;18.30;81.80;;;;;;5060325;28;20499;-45
2021/07/07 00:33:47;;;;;;;1.67;1.50;;;18.30;81.60;;;;;;5062722;28;20461;-45
2021/07/07 00:36:14;;;;;;;1.60;1.33;;;18.30;81.50;;;;;;5061530;28;20462;-45
2021/07/07 00:38:41;;;;;;;4.10;1.40;;;18.20;81.60;;;;;;5061824;28;20808;-45
2021/07/07 00:41:07;;;;;;;5.97;1.60;;;18.20;81.60;;;;;;5061136;28;20826;-45
2021/07/07 00:43:34;;;;;;;2.50;1.20;;;18.20;81.90;;;;;;5062247;28;20468;-45
2021/07/07 00:46:02;;;;;;;4.67;1.30;;;18.20;82.10;;;;;;5059842;28;20783;-45
2021/07/07 00:48:29;;;;;;;3.60;1.40;;;18.20;82.20;;;;;;5059683;28;20462;-45
2021/07/07 00:50:59;;;;;;;2.30;1.30;;;18.10;82.30;;;;;;5055250;28;20458;-45
2021/07/07 00:53:26;;;;;;;1.40;1.30;;;18.10;82.40;;;;;;5062318;28;20458;-45
2021/07/07 00:55:54;;;;;;;1.13;1.00;;;18.10;82.40;;;;;;5061270;28;20465;-45
2021/07/07 00:58:22;;;;;;;3.03;1.07;;;18.10;82.50;;;;;;5062616;28;20462;-45
2021/07/07 01:00:49;;;;;;;2.00;1.53;;;18.10;82.50;;;;;;5056652;28;20454;-45
2021/07/07 01:03:15;;;;;;;2.40;1.80;;;18.10;82.60;;;;;;5088600;28;20447;-45
2021/07/07 01:05:42;;;;;;;1.97;1.60;;;18.10;82.60;;;;;;5062332;28;20462;-45
2021/07/07 01:08:09;;;;;;;2.60;1.10;;;18.10;82.60;;;;;;5059526;28;20447;-45
2021/07/07 01:10:37;;;;;;;3.70;1.03;;;18.00;82.60;;;;;;5062536;28;20552;-45
2021/07/07 01:13:04;;;;;;;4.37;1.80;;;18.00;82.70;;;;;;5061041;28;20501;-45
2021/07/07 01:15:32;;;;;;;6.97;2.90;;;18.00;82.70;;;;;;5053832;28;20465;-45
2021/07/07 01:17:59;;;;;;;2.10;1.07;;;18.00;82.80;;;;;;5062210;28;20481;-45
2021/07/07 01:20:26;;;;;;;1.80;1.50;;;17.90;82.90;;;;;;5089679;28;20458;-45
2021/07/07 01:22:58;;;;;;;1.53;1.43;;;17.90;83.00;;;;;;5058478;28;20500;-45
2021/07/07 01:25:25;;;;;;;4.10;1.47;;;17.90;83.10;;;;;;5056686;28;20457;-45
2021/07/07 01:27:53;;;;;;;1.33;1.23;;;17.90;83.20;;;;;;5062298;28;20450;-45
2021/07/07 01:30:21;;;;;;;3.20;1.50;;;17.90;83.20;;;;;;5063369;28;20451;-45
2021/07/07 01:32:49;;;;;;;2.40;1.20;;;17.90;83.10;;;;;;5057151;28;20559;-45
2021/07/07 01:35:17;;;;;;;3.20;1.23;;;17.90;82.70;;;;;;5061329;28;20504;-45
2021/07/07 01:37:45;;;;;;;2.87;1.40;;;18.00;81.70;;;;;;5059537;28;20455;-45
2021/07/07 01:40:14;;;;;;;2.33;1.33;;;18.00;81.60;;;;;;5059305;28;20461;-45
2021/07/07 01:42:41;;;;;;;2.03;1.30;;;17.90;81.80;;;;;;5060052;28;20492;-45
2021/07/07 01:45:09;;;;;;;3.90;1.60;;;17.90;81.80;;;;;;5063880;28;20461;-45
2021/07/07 01:47:36;;;;;;;6.93;1.33;;;18.00;81.60;;;;;;5088276;28;20540;-45
2021/07/07 01:50:05;;;;;;;0.97;0.90;;;17.90;81.70;;;;;;5058663;28;20457;-45
2021/07/07 01:52:32;;;;;;;1.90;1.27;;;17.90;81.90;;;;;;5061301;28;20963;-45
2021/07/07 01:55:00;;;;;;;3.80;1.27;;;17.80;81.80;;;;;;5059511;28;20831;-45
2021/07/07 01:57:43;;;;;;;1.10;0.97;;;17.80;81.70;;;;;;5058398;28;20872;-45
2021/07/07 02:00:12;;;;;;;3.07;1.50;;;17.80;81.70;;;;;;5060040;28;20888;-45
2021/07/07 02:02:40;;;;;;;3.80;1.23;;;17.80;81.70;;;;;;5060412;28;20847;-45
2021/07/07 02:05:08;;;;;;;1.67;0.97;;;17.80;81.60;;;;;;5058081;28;21017;-45
2021/07/07 02:07:35;;;;;;;1.80;1.07;;;17.80;81.40;;;;;;5059340;28;20811;-45
2021/07/07 02:10:07;;;;;;;3.60;1.07;;;17.80;81.10;;;;;;5061309;28;20445;-45
2021/07/07 02:12:34;;;;;;;3.53;1.23;;;17.80;81.30;;;;;;5060128;28;20462;-45
2021/07/07 02:15:09;;;;;;;3.13;1.57;;;17.70;81.60;;;;;;5061415;28;20485;-45
2021/07/07 02:17:37;;;;;;;3.23;1.13;;;17.70;81.70;;;;;;5059868;28;20496;-45
2021/07/07 02:20:08;;;;;;;1.50;1.40;;;17.70;81.70;;;;;;5062364;28;20481;-45
2021/07/07 02:22:35;;;;;;;4.23;1.33;;;17.70;81.90;;;;;;5060646;28;20497;-45
2021/07/07 02:25:05;;;;;;;2.60;1.40;;;17.70;81.80;;;;;;5059988;28;20848;-45
2021/07/07 02:27:32;;;;;;;3.43;1.23;;;17.70;82.00;;;;;;5059029;28;21028;-45
2021/07/07 02:29:59;;;;;;;2.60;1.40;;;17.60;81.90;;;;;;5059843;28;20449;-45
2021/07/07 02:32:26;;;;;;;1.20;1.00;;;17.60;81.80;;;;;;5057563;28;20463;-45
2021/07/07 02:34:53;;;;;;;1.17;0.87;;;17.60;81.80;;;;;;5058167;28;20480;-45
2021/07/07 02:37:19;;;;;;;2.83;1.80;;;17.60;81.80;;;;;;5057996;28;20459;-45
2021/07/07 02:39:46;;;;;;;1.40;1.03;;;17.60;81.70;;;;;;5059334;28;20451;-44
2021/07/07 02:42:14;;;;;;;2.30;1.20;;;17.60;81.70;;;;;;5060698;28;20484;-44
2021/07/07 02:44:41;;;;;;;1.57;1.23;;;17.60;81.70;;;;;;5059523;28;20463;-44
2021/07/07 02:47:08;;;;;;;1.37;1.27;;;17.60;81.90;;;;;;5058650;28;20552;-44
2021/07/07 02:49:35;;;;;;;2.60;1.20;;;17.60;81.80;;;;;;5059854;28;20458;-45
2021/07/07 02:52:02;;;;;;;2.87;0.90;;;17.60;81.70;;;;;;5087193;28;20458;-45
2021/07/07 02:54:29;;;;;;;5.43;1.23;;;17.60;81.70;;;;;;5060846;28;20460;-45
2021/07/07 02:56:56;;;;;;;1.87;0.90;;;17.60;81.40;;;;;;5058269;28;20468;-45
2021/07/07 02:59:23;;;;;;;2.27;1.23;;;17.60;81.40;;;;;;5059224;28;20801;-45
2021/07/07 03:01:50;;;;;;;2.17;1.27;;;17.50;81.30;;;;;;5057404;28;20494;-45
2021/07/07 03:04:16;;;;;;;2.13;1.27;;;17.50;81.40;;;;;;5090105;28;20553;-45
2021/07/07 03:06:43;;;;;;;1.67;1.57;;;17.50;81.40;;;;;;5054687;28;20633;-45
2021/07/07 03:09:10;;;;;;;2.20;1.00;;;17.50;81.50;;;;;;5060534;28;20977;-45
2021/07/07 03:11:38;;;;;;;1.50;1.17;;;17.50;81.40;;;;;;5063342;28;20872;-45
2021/07/07 03:14:05;;;;;;;5.07;1.50;;;17.50;81.50;;;;;;5065069;28;20509;-45
2021/07/07 03:16:32;;;;;;;2.57;1.30;;;17.50;81.50;;;;;;5065614;28;20544;-45
2021/07/07 03:18:59;;;;;;;2.27;1.43;;;17.40;81.60;;;;;;5062582;28;21002;-45
2021/07/07 03:21:26;;;;;;;2.40;1.60;;;17.40;81.70;;;;;;5060021;28;20466;-45
2021/07/07 03:23:52;;;;;;;1.57;1.47;;;17.30;81.80;;;;;;5061784;28;20450;-45
2021/07/07 03:26:19;;;;;;;5.17;1.50;;;17.30;81.90;;;;;;5060680;28;20457;-45
2021/07/07 03:28:47;;;;;;;7.40;1.57;;;17.30;81.90;;;;;;5062761;28;20466;-45
2021/07/07 03:31:14;;;;;;;1.37;1.27;;;17.30;82.00;;;;;;5063667;28;21967;-45
2021/07/07 03:33:41;;;;;;;7.60;1.40;;;17.30;82.10;;;;;;5061947;28;20462;-45
2021/07/07 03:36:08;;;;;;;3.00;1.73;;;17.20;82.10;;;;;;5062300;28;20462;-45
2021/07/07 03:38:35;;;;;;;1.93;1.50;;;17.20;82.20;;;;;;5060606;28;20831;-45
2021/07/07 03:41:02;;;;;;;2.87;1.00;;;17.20;82.20;;;;;;5058568;28;20450;-45
2021/07/07 03:43:28;;;;;;;3.90;1.20;;;17.20;82.30;;;;;;5063620;28;20866;-45
2021/07/07 03:45:55;;;;;;;4.43;1.30;;;17.20;82.10;;;;;;5061416;28;20461;-45
2021/07/07 03:48:22;;;;;;;2.70;1.80;;;17.20;82.20;;;;;;5063195;28;20456;-45
2021/07/07 03:50:49;;;;;;;2.67;1.30;;;17.10;82.20;;;;;;5060441;28;20458;-45
2021/07/07 03:53:15;;;;;;;1.20;1.10;;;17.20;82.20;;;;;;5061779;28;20821;-45
2021/07/07 03:55:46;;;;;;;2.57;1.40;;;17.20;82.30;;;;;;5060934;28;20815;-45
2021/07/07 03:58:14;;;;;;;3.23;1.27;;;17.10;82.50;;;;;;5062381;28;20466;-45
2021/07/07 04:00:41;;;;;;;3.63;1.40;;;17.20;82.50;;;;;;5061603;28;20461;-45
2021/07/07 04:03:08;;;;;;;3.13;1.30;;;17.10;82.60;;;;;;5087865;28;20556;-45
2021/07/07 04:05:35;;;;;;;2.87;1.43;;;17.10;82.70;;;;;;5061457;28;20802;-45
2021/07/07 04:08:01;;;;;;;2.40;1.30;;;17.10;82.80;;;;;;5064745;28;20459;-45
2021/07/07 04:10:28;;;;;;;4.60;1.40;;;17.10;83.00;;;;;;5060965;28;20454;-45
2021/07/07 04:12:55;;;;;;;3.50;1.20;;;17.10;83.00;;;;;;5057310;28;21923;-45
2021/07/07 04:15:22;;;;;;;2.10;1.63;;;17.20;82.90;;;;;;5089222;28;20808;-45
2021/07/07 04:17:49;;;;;;;3.00;1.70;;;17.20;82.90;;;;;;5059128;28;20492;-45
2021/07/07 04:20:18;;;;;;;2.53;1.40;;;17.10;82.90;;;;;;5061032;28;20464;-45
2021/07/07 04:22:45;;;;;;;2.13;1.40;;;17.10;82.90;;;;;;5058510;28;20577;-45
2021/07/07 04:25:14;;;;;;;2.10;1.80;;;17.10;83.00;;;;;;5059766;28;20458;-45
2021/07/07 04:27:42;;;;;;;2.53;1.40;;;17.10;83.10;;;;;;5061913;28;20950;-45
2021/07/07 04:30:12;;;;;;;3.57;1.40;;;17.10;83.30;;;;;;5058631;28;21699;-45
2021/07/07 04:32:38;;;;;;;5.77;1.63;;;17.10;83.50;;;;;;5062127;28;20469;-45
2021/07/07 04:35:07;;;;;;;2.43;1.60;;;17.10;83.50;;;;;;5062029;28;20462;-45
2021/07/07 04:37:34;;;;;;;2.33;1.47;;;17.10;83.60;;;;;;5061034;28;20500;-45
2021/07/07 04:40:01;;;;;;;2.30;1.43;;;17.20;83.40;;;;;;5089552;28;20967;-45
2021/07/07 04:42:28;;;;;;;4.33;1.50;;;17.20;83.20;;;;;;5058975;28;20849;-45
2021/07/07 04:44:54;;;;;;;1.37;1.03;;;17.20;83.10;;;;;;5063871;28;20450;-45
2021/07/07 04:47:21;;;;;;;2.97;1.30;;;17.20;82.80;;;;;;5066763;28;20446;-45
2021/07/07 04:49:48;;;;;;;5.33;1.43;;;17.20;82.50;;;;;;5060162;28;20465;-45
2021/07/07 04:52:15;;;;;;;3.53;1.40;;;17.20;82.30;;;;;;5086646;28;20967;-45
2021/07/07 04:54:43;;;;;;;5.23;1.70;;;17.20;82.40;;;;;;5063803;28;20461;-45
2021/07/07 04:57:11;;;;;;;3.33;1.70;;;17.20;82.10;;;;;;5066006;28;20947;-45
2021/07/07 04:59:38;;;;;;;4.07;1.50;;;17.20;82.30;;;;;;5065074;28;20458;-45
2021/07/07 05:02:04;;;;;;;1.43;1.33;;;17.20;82.50;;;;;;5086117;28;20851;-45
2021/07/07 05:04:31;;;;;;;5.23;1.40;;;17.20;82.70;;;;;;5063534;28;20527;-45
2021/07/07 05:06:58;;;;;;;3.23;1.37;;;17.20;82.70;;;;;;5058211;28;20454;-45
2021/07/07 05:09:24;;;;;;;3.53;1.40;;;17.20;82.70;;;;;;5088396;28;20943;-45
2021/07/07 05:11:51;;;;;;;5.07;1.90;;;17.20;82.70;;;;;;5083323;28;20457;-45
2021/07/07 05:14:19;;;;;;;3.30;1.53;;;17.20;82.80;;;;;;5061528;28;20461;-45
2021/07/07 05:16:46;;;;;;;2.13;1.10;;;17.20;82.80;;;;;;5058154;28;20455;-45
2021/07/07 05:19:13;;;;;;;1.33;0.90;;;17.20;82.80;;;;;;5084361;28;20474;-45
2021/07/07 05:21:42;;;;;;;3.23;1.30;;;17.20;82.80;;;;;;5059459;28;20468;-45
2021/07/07 05:24:08;;;;;;;3.27;1.20;;;17.30;82.70;;;;;;5055070;28;20455;-45
2021/07/07 05:26:35;;;;;;;2.00;1.10;;;17.30;82.80;;;;;;5087314;27;20467;-45
2021/07/07 05:29:02;;;;;;;2.37;1.40;;;17.40;82.60;;;;;;5064388;28;20530;-45
2021/07/07 05:31:29;;;;;;;2.23;1.10;;;17.40;82.60;;;;;;5062110;28;20451;-45
2021/07/07 05:33:56;;;;;;;3.87;1.50;;;17.40;82.40;;;;;;5060587;28;20468;-45
2021/07/07 05:36:22;;;;;;;4.30;1.40;;;17.40;82.40;;;;;;5061837;28;20470;-45
2021/07/07 05:38:49;;;;;;;2.90;1.30;;;17.40;82.60;;;;;;5058157;28;20500;-45
2021/07/07 05:41:16;;;;;;;3.67;1.40;;;17.50;82.60;;;;;;5055043;28;20553;-45
2021/07/07 05:43:43;;;;;;;4.93;1.40;;;17.50;82.80;;;;;;5082747;28;20877;-45
2021/07/07 05:46:10;;;;;;;6.33;2.23;;;17.50;82.80;;;;;;5090199;28;20974;-45
2021/07/07 05:48:36;;;;;;;2.53;1.47;;;17.50;82.70;;;;;;5057107;28;20480;-45
2021/07/07 05:51:04;;;;;;;2.63;2.03;;;17.50;82.70;;;;;;5059841;28;20973;-45
2021/07/07 05:53:31;;;;;;;3.97;1.50;;;17.50;82.20;;;;;;5067993;28;20560;-45
2021/07/07 05:55:58;;;;;;;3.13;1.47;;;17.50;82.20;;;;;;5089322;28;20453;-45
2021/07/07 05:58:25;;;;;;;8.37;1.90;;;17.50;82.10;;;;;;5061635;28;20477;-45
2021/07/07 06:00:52;;;;;;;2.43;1.63;;;17.60;82.20;;;;;;5089633;28;20887;-45
2021/07/07 06:03:19;;;;;;;3.10;1.90;;;17.60;82.40;;;;;;5055868;28;20838;-45
2021/07/07 06:05:45;;;;;;;2.40;1.47;;;17.60;82.50;;;;;;5060581;28;20468;-45
2021/07/07 06:08:12;;;;;;;2.97;1.97;;;17.60;82.50;;;;;;5062757;28;20450;-45
2021/07/07 06:10:41;;;;;;;2.80;1.77;;;17.60;82.30;;;;;;5085868;28;20465;-45
2021/07/07 06:13:08;;;;;;;6.43;1.97;;;17.60;82.20;;;;;;5057501;28;20468;-45
2021/07/07 06:15:36;;;;;;;4.87;2.17;;;17.60;82.10;;;;;;5056153;28;20549;-45
2021/07/07 06:18:07;;;;;;;3.70;1.90;;;17.60;82.20;;;;;;5059515;28;20877;-45
2021/07/07 06:20:34;;;;;;;5.70;2.10;;;17.60;82.30;;;;;;5059343;28;20485;-45
2021/07/07 06:23:01;;;;;;;5.80;2.33;;;17.60;82.40;;;;;;5058653;28;21005;-45
2021/07/07 06:25:28;;;;;;;3.33;2.23;;;17.60;82.40;;;;;;5059647;28;20446;-45
2021/07/07 06:27:55;;;;;;;2.70;2.00;;;17.70;82.20;;;;;;5093609;28;20947;-45
2021/07/07 06:30:24;;;;;;;4.67;1.90;;;17.70;81.70;;;;;;5061651;28;20533;-45
2021/07/07 06:32:53;;;;;;;6.23;2.37;;;17.70;81.70;;;;;;5070613;28;20520;-45
2021/07/07 06:35:20;;;;;;;4.27;2.27;;;17.80;81.10;;;;;;5060531;28;20446;-45
2021/07/07 06:37:48;;;;;;;5.70;2.23;;;17.80;81.00;;;;;;5066462;28;20437;-45
2021/07/07 06:40:16;;;;;;;5.33;2.57;;;17.80;80.00;;;;;;5090110;28;21057;-45
2021/07/07 06:42:43;;;;;;;5.77;2.60;;;17.80;80.00;;;;;;5064992;28;20466;-45
2021/07/07 06:45:11;;;;;;;7.00;2.30;;;17.90;80.00;;;;;;5063429;28;20548;-45
2021/07/07 06:47:39;;;;;;;5.70;2.40;;;17.90;80.30;;;;;;5062032;28;20977;-45
2021/07/07 06:50:08;;;;;;;3.10;2.23;;;18.10;79.80;;;;;;5068109;28;20823;-45
2021/07/07 06:52:35;;;;;;;3.33;2.47;;;18.20;79.20;;;;;;5064049;28;20465;-45
2021/07/07 06:55:03;;;;;;;5.53;2.73;;;18.30;78.50;;;;;;5066892;28;20573;-45
2021/07/07 06:57:34;;;;;;;3.33;2.57;;;18.40;78.00;;;;;;5061587;28;20458;-45
2021/07/07 07:00:11;;;;;;;4.83;3.10;;;18.40;78.30;;;;;;5061910;28;20477;-45
2021/07/07 07:02:39;;;;;;;3.77;2.70;;;18.40;78.80;;;;;;5059332;28;20485;-45
2021/07/07 07:05:08;;;;;;;4.63;3.03;;;18.50;79.00;;;;;;5057678;28;20450;-45
2021/07/07 07:07:35;;;;;;;3.80;2.13;;;18.60;79.10;;;;;;5055829;28;20822;-45
2021/07/07 07:10:04;;;;;;;6.33;2.97;;;18.80;79.00;;;;;;5058473;28;20503;-45
2021/07/07 07:12:31;;;;;;;5.00;3.20;;;18.90;78.40;;;;;;5059575;28;20458;-45
2021/07/07 07:14:58;;;;;;;5.23;3.73;;;19.10;77.60;;;;;;5090109;28;20460;-45
2021/07/07 07:17:26;;;;;;;3.30;2.27;;;19.20;77.30;;;;;;5061147;28;20492;-45
2021/07/07 07:19:53;;;;;;;3.80;2.50;;;19.40;76.50;;;;;;5057571;28;20494;-45
2021/07/07 07:22:20;;;;;;;6.53;2.80;;;19.50;76.70;;;;;;5090528;28;21241;-45
2021/07/07 07:24:48;;;;;;;4.70;3.50;;;19.70;76.70;;;;;;5062918;28;20803;-45
2021/07/07 07:27:15;;;;;;;5.83;2.80;;;19.80;75.80;;;;;;5063242;28;20535;-44
2021/07/07 07:29:43;;;;;;;3.27;2.83;;;19.90;75.30;;;;;;5059237;28;20478;-45
2021/07/07 07:32:09;;;;;;;3.63;3.33;;;20.10;75.00;;;;;;5091061;28;20849;-45
2021/07/07 07:34:37;;;;;;;4.40;2.87;;;20.30;72.70;;;;;;5058704;28;20472;-45
2021/07/07 07:37:05;;;;;;;5.33;3.27;;;20.40;72.30;;;;;;5059179;28;20446;-45
2021/07/07 07:39:52;;;;;;;3.20;2.47;;;20.50;72.40;;;;;;5059893;28;20458;-45
2021/07/07 07:42:19;;;;;;;4.83;2.90;;;20.60;71.60;;;;;;5060451;28;20468;-45
2021/07/07 07:44:47;;;;;;;4.10;3.37;;;20.70;71.60;;;;;;5059039;28;20442;-45
2021/07/07 07:47:15;;;;;;;5.50;3.10;;;20.80;71.50;;;;;;5062950;28;20532;-45
2021/07/07 07:50:04;;;;;;;5.97;2.77;;;20.90;71.50;;;;;;5060185;28;20453;-45
2021/07/07 07:52:31;;;;;;;7.03;3.63;;;21.00;70.60;;;;;;5092582;28;20458;-45
2021/07/07 07:54:57;;;;;;;3.33;3.00;;;21.00;70.40;;;;;;5059768;28;20459;-45
2021/07/07 07:57:24;;;;;;;9.10;3.80;;;21.10;70.80;;;;;;5063276;28;20454;-45
2021/07/07 07:59:51;;;;;;;7.27;3.10;;;21.20;71.10;;;;;;5060688;28;20450;-45
2021/07/07 08:02:18;;;;;;;6.97;2.70;;;21.30;70.40;;;;;;5062016;28;20967;-44
2021/07/07 08:04:45;;;;;;;5.00;3.27;;;21.40;69.80;;;;;;5060584;28;20487;-45
2021/07/07 08:07:11;;;;;;;4.67;3.10;;;21.60;70.40;;;;;;5062542;28;20458;-45
2021/07/07 08:09:39;;;;;;;3.40;3.03;;;21.70;70.40;;;;;;5060479;28;20788;-44
2021/07/07 08:12:06;;;;;;;17.33;3.83;;;21.80;70.10;;;;;;5058134;28;20469;-44
2021/07/07 08:14:33;;;;;;;5.90;2.77;;;22.00;68.70;;;;;;5090598;28;20830;-44
2021/07/07 08:17:00;;;;;;;4.03;3.60;;;22.10;67.40;;;;;;5056977;28;20472;-44
2021/07/07 08:19:27;;;;;;;4.30;3.10;;;22.20;67.60;;;;;;5060972;28;20504;-44
2021/07/07 08:21:54;;;;;;;3.87;2.40;;;22.40;66.20;;;;;;5062003;28;20457;-44
2021/07/07 08:24:21;;;;;;;4.13;2.43;;;22.40;65.80;;;;;;5058862;28;20504;-44
2021/07/07 08:26:47;;;;;;;5.73;2.80;;;22.60;66.10;;;;;;5059825;28;20453;-44
2021/07/07 08:29:14;;;;;;;7.23;2.70;;;22.60;65.70;;;;;;5059596;28;20572;-45
2021/07/07 08:31:41;;;;;;;4.73;3.47;;;22.70;65.00;;;;;;5055638;28;20454;-44
2021/07/07 08:34:08;;;;;;;4.37;2.33;;;22.90;65.70;;;;;;5090660;28;20476;-44
2021/07/07 08:36:35;;;;;;;3.80;2.13;;;23.00;65.80;;;;;;5059422;28;20464;-44
2021/07/07 08:39:03;;;;;;;2.83;2.37;;;23.10;65.70;;;;;;5058310;28;20453;-45
2021/07/07 08:41:31;;;;;;;5.50;2.17;;;23.20;64.90;;;;;;5074922;28;20452;-45
2021/07/07 08:43:57;;;;;;;4.57;2.40;;;23.40;63.90;;;;;;5057246;28;21146;-44
2021/07/07 08:46:25;;;;;;;4.47;2.50;;;23.50;64.00;;;;;;5058518;28;20445;-44
2021/07/07 08:48:52;;;;;;;5.80;3.10;;;23.60;63.00;;;;;;5058381;28;20508;-45
2021/07/07 08:51:19;;;;;;;2.60;1.97;;;23.60;63.40;;;;;;5057109;28;20450;-45
2021/07/07 08:53:46;;;;;;;3.40;1.90;;;23.60;64.30;;;;;;5062064;28;20476;-45
2021/07/07 08:56:13;;;;;;;4.43;2.70;;;23.70;64.10;;;;;;5056187;28;20501;-45
2021/07/07 08:58:40;;;;;;;2.60;2.33;;;23.60;64.60;;;;;;5055822;28;20978;-44
2021/07/07 09:01:07;;;;;;;6.70;3.30;;;23.60;65.40;;;;;;5060583;28;20819;-45
2021/07/07 09:03:34;;;;;;;3.20;2.63;;;23.60;64.90;;;;;;5055956;28;20481;-44
2021/07/07 09:06:04;;;;;;;5.47;2.40;;;23.70;64.50;;;;;;5055628;28;20465;-45
2021/07/07 09:08:38;;;;;;;4.63;2.43;;;23.80;64.20;;;;;;5056552;28;20464;-45
2021/07/07 09:11:29;;;;;;;3.90;2.50;;;23.90;64.20;;;;;;5088928;27;20468;-44
2021/07/07 09:14:13;;;;;;;4.53;2.13;;;24.10;63.70;;;;;;5059080;28;20457;-45
2021/07/07 09:16:52;;;;;;;7.00;2.50;;;24.30;62.70;;;;;;5056485;28;20461;-45
2021/07/07 09:19:23;;;;;;;6.23;2.40;;;24.40;62.30;;;;;;5059056;28;20477;-44
2021/07/07 09:21:53;;;;;;;6.43;2.53;;;24.70;62.10;;;;;;5053486;28;20461;-45
2021/07/07 09:24:24;;;;;;;4.03;2.20;;;24.90;60.60;;;;;;5059990;28;20484;-45
2021/07/07 09:27:07;;;;;;;4.13;2.30;;;25.20;60.40;;;;;;5058363;28;20442;-45
2021/07/07 09:29:46;;;;;;;4.10;2.67;;;25.50;59.60;;;;;;5057552;28;20450;-45
2021/07/07 09:32:18;;;;;;;2.83;2.00;;;25.70;58.80;;;;;;5053568;28;20453;-45
2021/07/07 09:34:50;;;;;;;3.70;1.70;;;25.90;58.70;;;;;;5056369;28;20442;-44
2021/07/07 09:37:33;;;;;;;3.90;2.30;;;26.10;57.70;;;;;;5054150;28;20848;-44
2021/07/07 09:40:01;;;;;;;5.67;2.23;;;26.40;57.60;;;;;;5059006;28;20455;-44
2021/07/07 09:42:31;;;;;;;4.33;1.90;;;26.80;56.90;;;;;;5055120;28;20458;-44
2021/07/07 09:44:59;;;;;;;6.00;2.30;;;26.80;54.90;;;;;;5083568;28;20488;-44
2021/07/07 09:47:28;;;;;;;3.40;2.00;;;27.00;55.20;;;;;;5053262;28;20537;-43
2021/07/07 09:49:56;;;;;;;7.37;1.90;;;27.20;55.30;;;;;;5055751;28;20449;-44
2021/07/07 09:52:26;;;;;;;3.83;2.10;;;27.40;54.80;;;;;;5056118;28;20449;-44
2021/07/07 09:54:54;;;;;;;5.00;2.37;;;27.50;54.50;;;;;;5054624;28;20454;-44
2021/07/07 09:57:22;;;;;;;5.40;2.20;;;27.50;53.80;;;;;;5055063;28;20464;-44
2021/07/07 09:59:50;;;;;;;4.87;2.73;;;27.40;53.40;;;;;;5056897;28;20457;-44
2021/07/07 10:02:17;;;;;;;5.50;2.07;;;27.30;54.00;;;;;;5057020;28;20450;-44
2021/07/07 10:04:44;;;;;;;2.83;1.70;;;27.20;53.40;;;;;;5084657;28;20566;-43
2021/07/07 10:07:12;;;;;;;3.87;2.43;;;27.10;52.90;;;;;;5057280;28;20441;-46
2021/07/07 10:09:44;;;;;;;3.37;1.80;;;26.80;54.20;;;;;;5057316;28;20448;-42
2021/07/07 10:12:11;;;;;;;4.23;2.30;;;26.60;54.60;;;;;;5058228;28;20453;-46
2021/07/07 10:14:38;;;;;;;5.93;1.80;;;26.30;54.90;;;;;;5055384;28;20468;-45
2021/07/07 10:17:05;;;;;;;4.83;2.20;;;26.10;56.40;;;;;;5084926;28;20978;-44
2021/07/07 10:19:34;;;;;;;4.10;2.37;;;25.90;56.10;;;;;;5052271;28;20480;-43
2021/07/07 10:22:01;;;;;;;3.37;2.20;;;25.60;56.70;;;;;;5084397;28;21029;-46
2021/07/07 10:24:30;;;;;;;2.10;1.87;;;25.30;57.00;;;;;;5053963;28;20485;-44
2021/07/07 10:26:59;;;;;;;4.30;1.80;;;25.20;58.10;;;;;;5055110;28;20457;-44
2021/07/07 10:29:27;;;;;;;2.90;2.50;;;25.00;58.10;;;;;;5084615;28;20464;-44
2021/07/07 10:31:56;;;;;;;5.03;1.77;;;25.00;57.70;;;;;;5055528;28;20461;-44
2021/07/07 10:34:26;;;;;;;4.33;2.50;;;24.80;59.20;;;;;;5084067;28;20796;-46
2021/07/07 10:36:54;;;;;;;5.30;2.53;;;24.80;59.00;;;;;;5055145;28;20830;-46
2021/07/07 10:39:21;;;;;;;7.83;2.30;;;24.60;59.40;;;;;;5053352;28;20463;-44
2021/07/07 10:41:51;;;;;;;4.40;2.20;;;24.50;58.50;;;;;;5085445;28;20920;-44
2021/07/07 10:44:24;;;;;;;4.67;1.90;;;24.50;58.30;;;;;;5056059;28;20580;-44
2021/07/07 10:47:05;;;;;;;3.33;2.07;;;24.50;58.20;;;;;;5055774;28;20457;-44
2021/07/07 10:49:38;;;;;;;4.30;2.27;;;24.40;59.30;;;;;;5056688;28;20458;-44
2021/07/07 10:52:10;;;;;;;3.63;2.07;;;24.30;58.80;;;;;;5053595;28;20473;-44
2021/07/07 10:54:40;;;;;;;6.37;2.10;;;24.30;59.60;;;;;;5053934;28;20456;-44
2021/07/07 10:57:09;;;;;;;5.80;2.77;;;24.20;59.80;;;;;;5055239;28;20457;-46
2021/07/07 10:59:40;;;;;;;6.13;2.00;;;24.10;58.80;;;;;;5054525;28;21005;-43
2021/07/07 11:02:08;;;;;;;3.63;1.80;;;24.00;59.20;;;;;;5053541;28;20890;-44
2021/07/07 11:04:40;;;;;;;2.57;1.80;;;23.90;59.90;;;;;;5053675;28;20582;-44
2021/07/07 11:07:34;;;;;;;5.20;2.03;;;23.90;60.10;;;;;;5054850;28;20449;-42
2021/07/07 11:10:04;;;;;;;4.90;1.90;;;23.90;60.80;;;;;;5054515;28;20982;-44
2021/07/07 11:12:40;;;;;;;7.40;2.57;;;23.90;60.00;;;;;;5057123;28;20460;-43
2021/07/07 11:15:19;;;;;;;2.50;2.30;;;23.80;59.70;;;;;;5056000;28;20916;-44
2021/07/07 11:17:54;;;;;;;3.23;2.20;;;23.80;60.10;;;;;;5052070;28;20492;-45
2021/07/07 11:20:26;;;;;;;3.17;2.17;;;23.70;60.20;;;;;;5055848;28;20506;-44
2021/07/07 11:23:09;;;;;;;3.93;2.30;;;23.70;60.90;;;;;;5057546;28;20457;-43
2021/07/07 11:25:39;;;;;;;5.37;2.27;;;23.70;60.80;;;;;;5068432;28;20491;-44
2021/07/07 11:28:08;;;;;;;6.03;2.47;;;23.80;60.00;;;;;;5054243;28;20456;-43
2021/07/07 11:30:35;;;;;;;5.40;2.40;;;23.80;59.50;;;;;;5059388;28;20930;-44
2021/07/07 11:33:04;;;;;;;6.67;2.07;;;23.90;59.60;;;;;;5057822;28;20536;-44
2021/07/07 11:35:32;;;;;;;8.70;2.60;;;23.90;59.70;;;;;;5090639;28;20472;-44
2021/07/07 11:38:05;;;;;;;8.70;2.30;;;23.90;60.70;;;;;;5056498;28;20465;-45
2021/07/07 11:40:39;;;;;;;6.60;2.33;;;23.90;60.40;;;;;;5059195;28;20462;-44
2021/07/07 11:43:10;;;;;;;3.17;2.13;;;23.90;60.00;;;;;;5058528;28;20464;-45
2021/07/07 11:45:44;;;;;;;6.37;2.53;;;23.90;59.40;;;;;;5057682;28;20488;-45
2021/07/07 11:48:24;;;;;;;4.00;2.10;;;23.90;59.30;;;;;;5059341;28;20502;-44
2021/07/07 11:50:57;;;;;;;5.13;2.30;;;23.90;59.60;;;;;;5055636;28;20453;-44
2021/07/07 11:53:37;;;;;;;3.37;2.40;;;23.90;57.50;;;;;;5061860;28;20457;-44
2021/07/07 11:56:10;;;;;;;8.50;2.87;;;23.80;57.60;;;;;;5060049;28;20455;-45
2021/07/07 11:58:45;;;;;;;3.13;1.83;;;24.00;58.60;;;;;;5089565;28;20500;-44
2021/07/07 12:01:23;;;;;;;5.03;2.33;;;23.90;58.10;;;;;;5056029;28;20828;-44
2021/07/07 12:03:57;;;;;;;6.07;2.60;;;24.10;58.40;;;;;;5076980;28;20485;-44
2021/07/07 12:06:36;;;;;;;4.90;2.80;;;24.10;58.70;;;;;;5058273;28;20479;-45
2021/07/07 12:09:14;;;;;;;6.03;2.67;;;24.20;57.80;;;;;;5057692;28;22216;-44
2021/07/07 12:11:54;;;;;;;3.57;2.30;;;24.10;56.90;;;;;;5057392;28;20453;-44
2021/07/07 12:14:23;;;;;;;5.10;1.90;;;24.10;56.70;;;;;;5061645;28;21190;-45
2021/07/07 12:16:51;;;;;;;7.87;2.20;;;24.20;56.70;;;;;;5060217;28;20490;-43
2021/07/07 12:19:19;;;;;;;2.80;2.00;;;24.30;54.00;;;;;;5058501;28;20528;-44
2021/07/07 12:21:57;;;;;;;3.93;1.80;;;24.20;51.80;;;;;;5058958;28;20462;-44
2021/07/07 12:24:30;;;;;;;2.00;1.80;;;24.10;52.30;;;;;;5058765;28;20478;-44
2021/07/07 12:27:02;;;;;;;9.10;3.67;;;24.10;54.70;;;;;;5061093;28;20464;-44
2021/07/07 12:29:49;;;;;;;2.40;2.20;;;24.20;56.60;;;;;;5059836;28;20446;-44
2021/07/07 12:32:27;;;;;;;4.93;2.10;;;24.30;57.00;;;;;;5060199;28;20801;-45
2021/07/07 12:34:58;;;;;;;4.33;2.33;;;24.20;57.30;;;;;;5057858;28;20464;-44
2021/07/07 12:37:25;;;;;;;3.10;1.87;;;24.20;57.80;;;;;;5060281;28;20462;-44
2021/07/07 12:39:55;;;;;;;2.10;1.90;;;24.20;57.20;;;;;;5081873;28;20465;-44
2021/07/07 12:42:35;;;;;;;4.67;2.27;;;24.30;58.20;;;;;;5062059;28;20484;-43
2021/07/07 12:45:06;;;;;;;3.17;2.30;;;24.30;57.50;;;;;;5056406;28;20476;-44
2021/07/07 12:47:36;;;;;;;5.03;2.03;;;24.40;57.60;;;;;;5087673;27;20464;-44
2021/07/07 12:50:15;;;;;;;4.70;1.80;;;24.40;56.80;;;;;;5089328;28;20511;-45
2021/07/07 12:52:43;;;;;;;3.87;1.90;;;24.30;56.50;;;;;;5057155;28;20452;-44
2021/07/07 12:55:23;;;;;;;4.20;1.73;;;24.40;56.60;;;;;;5060001;28;20457;-45
2021/07/07 12:58:06;;;;;;;4.03;2.40;;;24.40;56.60;;;;;;5056412;28;20465;-44